sensor_id;sensor_type;location;lat;lon;timestamp;P1;durP1;ratioP1;P2;durP2;ratioP2
34541;SDS011;20784;51.332;12.410;2022-12-18T00:01:03;70.10;;;33.97;;
34541;SDS011;20784;51.332;12.410;2022-12-18T00:03:33;66.75;;;34.15;;
34541;SDS011;20784;51.332;12.410;2022-12-18T00:06:00;70.82;;;33.47;;
34541;SDS011;20784;51.332;12.410;2022-12-18T00:08:27;66.70;;;32.88;;
34541;SDS011;20784;51.332;12.410;2022-12-18T00:10:53;67.47;;;34.50;;
34541;SDS011;20784;51.332;12.410;2022-12-18T00:13:19;75.63;;;34.03;;
34541;SDS011;20784;51.332;12.410;2022-12-18T00:15:45;69.95;;;33.72;;
34541;SDS011;20784;51.332;12.410;2022-12-18T00:18:11;67.65;;;33.95;;
34541;SDS011;20784;51.332;12.410;2022-12-18T00:20:37;63.50;;;31.88;;
34541;SDS011;20784;51.332;12.410;2022-12-18T00:23:04;63.78;;;32.13;;
34541;SDS011;20784;51.332;12.410;2022-12-18T00:25:34;66.00;;;32.80;;
34541;SDS011;20784;51.332;12.410;2022-12-18T00:28:01;66.57;;;33.72;;
34541;SDS011;20784;51.332;12.410;2022-12-18T00:30:29;70.43;;;34.30;;
34541;SDS011;20784;51.332;12.410;2022-12-18T00:32:55;64.95;;;34.08;;
34541;SDS011;20784;51.332;12.410;2022-12-18T00:35:21;66.40;;;33.33;;
34541;SDS011;20784;51.332;12.410;2022-12-18T00:37:46;69.43;;;33.90;;
34541;SDS011;20784;51.332;12.410;2022-12-18T00:40:12;66.43;;;32.35;;
34541;SDS011;20784;51.332;12.410;2022-12-18T00:42:38;64.55;;;32.70;;
34541;SDS011;20784;51.332;12.410;2022-12-18T00:45:25;62.67;;;31.42;;
34541;SDS011;20784;51.332;12.410;2022-12-18T00:47:52;72.10;;;32.58;;
34541;SDS011;20784;51.332;12.410;2022-12-18T00:50:18;65.75;;;33.25;;
34541;SDS011;20784;51.332;12.410;2022-12-18T00:52:44;65.38;;;33.30;;
34541;SDS011;20784;51.332;12.410;2022-12-18T00:55:09;66.68;;;31.00;;
34541;SDS011;20784;51.332;12.410;2022-12-18T00:57:36;65.25;;;31.45;;
34541;SDS011;20784;51.332;12.410;2022-12-18T01:00:02;66.68;;;32.30;;
34541;SDS011;20784;51.332;12.410;2022-12-18T01:02:30;64.35;;;32.88;;
34541;SDS011;20784;51.332;12.410;2022-12-18T01:04:55;66.43;;;32.65;;
34541;SDS011;20784;51.332;12.410;2022-12-18T01:07:21;75.63;;;32.70;;
34541;SDS011;20784;51.332;12.410;2022-12-18T01:09:47;63.78;;;32.30;;
34541;SDS011;20784;51.332;12.410;2022-12-18T01:12:12;62.75;;;31.10;;
34541;SDS011;20784;51.332;12.410;2022-12-18T01:14:38;64.60;;;30.08;;
34541;SDS011;20784;51.332;12.410;2022-12-18T01:17:03;62.33;;;28.35;;
34541;SDS011;20784;51.332;12.410;2022-12-18T01:19:29;61.40;;;30.27;;
34541;SDS011;20784;51.332;12.410;2022-12-18T01:21:55;56.95;;;28.52;;
34541;SDS011;20784;51.332;12.410;2022-12-18T01:24:21;59.53;;;27.17;;
34541;SDS011;20784;51.332;12.410;2022-12-18T01:26:47;62.08;;;29.80;;
34541;SDS011;20784;51.332;12.410;2022-12-18T01:29:12;64.65;;;29.85;;
34541;SDS011;20784;51.332;12.410;2022-12-18T01:31:38;60.28;;;29.45;;
34541;SDS011;20784;51.332;12.410;2022-12-18T01:34:04;63.63;;;29.25;;
34541;SDS011;20784;51.332;12.410;2022-12-18T01:36:37;60.33;;;28.15;;
34541;SDS011;20784;51.332;12.410;2022-12-18T01:39:07;57.70;;;27.80;;
34541;SDS011;20784;51.332;12.410;2022-12-18T01:41:39;58.10;;;28.07;;
34541;SDS011;20784;51.332;12.410;2022-12-18T01:47:21;58.38;;;26.50;;
34541;SDS011;20784;51.332;12.410;2022-12-18T01:49:48;54.05;;;26.00;;
34541;SDS011;20784;51.332;12.410;2022-12-18T01:52:14;53.58;;;25.80;;
34541;SDS011;20784;51.332;12.410;2022-12-18T01:54:41;58.90;;;28.00;;
34541;SDS011;20784;51.332;12.410;2022-12-18T01:57:07;58.30;;;26.90;;
34541;SDS011;20784;51.332;12.410;2022-12-18T01:59:33;60.30;;;26.92;;
34541;SDS011;20784;51.332;12.410;2022-12-18T02:02:00;55.50;;;26.73;;
34541;SDS011;20784;51.332;12.410;2022-12-18T02:04:27;56.67;;;27.80;;
34541;SDS011;20784;51.332;12.410;2022-12-18T02:07:17;50.22;;;26.13;;
34541;SDS011;20784;51.332;12.410;2022-12-18T02:12:49;54.97;;;25.90;;
34541;SDS011;20784;51.332;12.410;2022-12-18T02:18:38;55.85;;;25.75;;
34541;SDS011;20784;51.332;12.410;2022-12-18T02:21:12;63.15;;;25.88;;
34541;SDS011;20784;51.332;12.410;2022-12-18T02:23:47;52.22;;;25.30;;
34541;SDS011;20784;51.332;12.410;2022-12-18T02:26:22;49.60;;;24.73;;
34541;SDS011;20784;51.332;12.410;2022-12-18T02:29:00;55.60;;;25.88;;
34541;SDS011;20784;51.332;12.410;2022-12-18T02:31:35;51.55;;;24.63;;
34541;SDS011;20784;51.332;12.410;2022-12-18T02:34:07;50.88;;;25.50;;
34541;SDS011;20784;51.332;12.410;2022-12-18T02:36:34;56.47;;;25.10;;
34541;SDS011;20784;51.332;12.410;2022-12-18T02:39:03;53.95;;;25.05;;
34541;SDS011;20784;51.332;12.410;2022-12-18T02:41:31;53.53;;;25.88;;
34541;SDS011;20784;51.332;12.410;2022-12-18T02:43:58;53.15;;;26.17;;
34541;SDS011;20784;51.332;12.410;2022-12-18T02:46:34;59.30;;;23.88;;
34541;SDS011;20784;51.332;12.410;2022-12-18T02:49:06;50.17;;;24.00;;
34541;SDS011;20784;51.332;12.410;2022-12-18T02:54:19;56.15;;;25.48;;
34541;SDS011;20784;51.332;12.410;2022-12-18T02:56:51;50.58;;;24.55;;
34541;SDS011;20784;51.332;12.410;2022-12-18T02:59:26;52.97;;;24.13;;
34541;SDS011;20784;51.332;12.410;2022-12-18T03:04:56;49.55;;;22.35;;
34541;SDS011;20784;51.332;12.410;2022-12-18T03:07:34;51.28;;;23.77;;
34541;SDS011;20784;51.332;12.410;2022-12-18T03:10:04;48.42;;;22.40;;
34541;SDS011;20784;51.332;12.410;2022-12-18T03:12:35;56.10;;;24.75;;
34541;SDS011;20784;51.332;12.410;2022-12-18T03:17:40;44.80;;;22.15;;
34541;SDS011;20784;51.332;12.410;2022-12-18T03:20:18;48.67;;;23.75;;
34541;SDS011;20784;51.332;12.410;2022-12-18T03:22:47;48.30;;;22.90;;
34541;SDS011;20784;51.332;12.410;2022-12-18T03:25:20;51.00;;;22.55;;
34541;SDS011;20784;51.332;12.410;2022-12-18T03:27:48;50.35;;;22.90;;
34541;SDS011;20784;51.332;12.410;2022-12-18T03:30:16;52.53;;;23.90;;
34541;SDS011;20784;51.332;12.410;2022-12-18T03:33:02;48.67;;;22.58;;
34541;SDS011;20784;51.332;12.410;2022-12-18T03:38:02;46.03;;;21.42;;
34541;SDS011;20784;51.332;12.410;2022-12-18T03:40:33;50.42;;;22.10;;
34541;SDS011;20784;51.332;12.410;2022-12-18T03:43:35;49.35;;;22.23;;
34541;SDS011;20784;51.332;12.410;2022-12-18T03:46:17;43.97;;;21.55;;
34541;SDS011;20784;51.332;12.410;2022-12-18T03:48:46;46.45;;;21.67;;
34541;SDS011;20784;51.332;12.410;2022-12-18T03:51:18;43.25;;;20.52;;
34541;SDS011;20784;51.332;12.410;2022-12-18T03:53:58;43.92;;;21.15;;
34541;SDS011;20784;51.332;12.410;2022-12-18T03:56:27;40.72;;;20.83;;
34541;SDS011;20784;51.332;12.410;2022-12-18T03:58:55;46.85;;;20.92;;
34541;SDS011;20784;51.332;12.410;2022-12-18T04:01:26;42.92;;;20.83;;
34541;SDS011;20784;51.332;12.410;2022-12-18T04:03:56;40.40;;;20.30;;
34541;SDS011;20784;51.332;12.410;2022-12-18T04:06:25;45.00;;;19.60;;
34541;SDS011;20784;51.332;12.410;2022-12-18T04:08:51;39.38;;;19.65;;
34541;SDS011;20784;51.332;12.410;2022-12-18T04:11:18;42.80;;;19.85;;
34541;SDS011;20784;51.332;12.410;2022-12-18T04:13:43;42.53;;;19.27;;
34541;SDS011;20784;51.332;12.410;2022-12-18T04:16:09;42.03;;;19.52;;
34541;SDS011;20784;51.332;12.410;2022-12-18T04:18:44;38.38;;;19.23;;
34541;SDS011;20784;51.332;12.410;2022-12-18T04:21:10;38.03;;;18.52;;
34541;SDS011;20784;51.332;12.410;2022-12-18T04:23:38;46.92;;;20.85;;
34541;SDS011;20784;51.332;12.410;2022-12-18T04:26:06;38.80;;;19.60;;
34541;SDS011;20784;51.332;12.410;2022-12-18T04:28:32;41.28;;;18.50;;
34541;SDS011;20784;51.332;12.410;2022-12-18T04:30:57;39.42;;;19.73;;
34541;SDS011;20784;51.332;12.410;2022-12-18T04:33:23;35.85;;;18.70;;
34541;SDS011;20784;51.332;12.410;2022-12-18T04:35:49;40.95;;;18.52;;
34541;SDS011;20784;51.332;12.410;2022-12-18T04:38:15;48.05;;;19.00;;
34541;SDS011;20784;51.332;12.410;2022-12-18T04:40:48;36.80;;;18.42;;
34541;SDS011;20784;51.332;12.410;2022-12-18T04:43:14;39.75;;;18.92;;
34541;SDS011;20784;51.332;12.410;2022-12-18T04:45:39;37.08;;;17.00;;
34541;SDS011;20784;51.332;12.410;2022-12-18T04:48:05;38.70;;;17.02;;
34541;SDS011;20784;51.332;12.410;2022-12-18T04:50:31;33.67;;;17.45;;
34541;SDS011;20784;51.332;12.410;2022-12-18T04:52:57;35.35;;;17.50;;
34541;SDS011;20784;51.332;12.410;2022-12-18T04:55:23;33.97;;;16.75;;
34541;SDS011;20784;51.332;12.410;2022-12-18T04:57:48;37.67;;;18.05;;
34541;SDS011;20784;51.332;12.410;2022-12-18T05:00:14;30.00;;;15.95;;
34541;SDS011;20784;51.332;12.410;2022-12-18T05:02:40;37.38;;;16.90;;
34541;SDS011;20784;51.332;12.410;2022-12-18T05:05:06;34.58;;;16.13;;
34541;SDS011;20784;51.332;12.410;2022-12-18T05:07:35;28.65;;;15.88;;
34541;SDS011;20784;51.332;12.410;2022-12-18T05:10:01;35.22;;;16.52;;
34541;SDS011;20784;51.332;12.410;2022-12-18T05:12:30;37.20;;;17.42;;
34541;SDS011;20784;51.332;12.410;2022-12-18T05:14:56;32.78;;;17.02;;
34541;SDS011;20784;51.332;12.410;2022-12-18T05:17:27;35.83;;;17.67;;
34541;SDS011;20784;51.332;12.410;2022-12-18T05:19:52;32.40;;;15.95;;
34541;SDS011;20784;51.332;12.410;2022-12-18T05:22:18;32.35;;;16.10;;
34541;SDS011;20784;51.332;12.410;2022-12-18T05:24:44;35.80;;;16.38;;
34541;SDS011;20784;51.332;12.410;2022-12-18T05:27:10;37.30;;;17.80;;
34541;SDS011;20784;51.332;12.410;2022-12-18T05:29:36;36.08;;;17.00;;
34541;SDS011;20784;51.332;12.410;2022-12-18T05:32:02;31.00;;;15.75;;
34541;SDS011;20784;51.332;12.410;2022-12-18T05:34:28;29.88;;;15.05;;
34541;SDS011;20784;51.332;12.410;2022-12-18T05:36:58;35.60;;;16.48;;
34541;SDS011;20784;51.332;12.410;2022-12-18T05:39:24;34.15;;;16.48;;
34541;SDS011;20784;51.332;12.410;2022-12-18T05:41:50;30.63;;;14.50;;
34541;SDS011;20784;51.332;12.410;2022-12-18T05:44:15;30.92;;;16.23;;
34541;SDS011;20784;51.332;12.410;2022-12-18T05:46:41;28.98;;;16.13;;
34541;SDS011;20784;51.332;12.410;2022-12-18T05:49:07;29.80;;;14.80;;
34541;SDS011;20784;51.332;12.410;2022-12-18T05:51:33;32.42;;;15.35;;
34541;SDS011;20784;51.332;12.410;2022-12-18T05:53:58;30.88;;;15.75;;
34541;SDS011;20784;51.332;12.410;2022-12-18T05:56:24;31.10;;;16.15;;
34541;SDS011;20784;51.332;12.410;2022-12-18T05:58:53;29.40;;;15.35;;
34541;SDS011;20784;51.332;12.410;2022-12-18T06:01:21;25.33;;;14.70;;
34541;SDS011;20784;51.332;12.410;2022-12-18T06:03:48;33.40;;;15.50;;
34541;SDS011;20784;51.332;12.410;2022-12-18T06:06:21;29.95;;;15.55;;
34541;SDS011;20784;51.332;12.410;2022-12-18T06:08:49;36.13;;;17.20;;
34541;SDS011;20784;51.332;12.410;2022-12-18T06:11:21;30.73;;;15.80;;
34541;SDS011;20784;51.332;12.410;2022-12-18T06:13:51;33.28;;;16.20;;
34541;SDS011;20784;51.332;12.410;2022-12-18T06:16:18;28.05;;;15.05;;
34541;SDS011;20784;51.332;12.410;2022-12-18T06:18:44;32.22;;;16.67;;
34541;SDS011;20784;51.332;12.410;2022-12-18T06:21:10;32.65;;;16.42;;
34541;SDS011;20784;51.332;12.410;2022-12-18T06:23:35;31.10;;;15.57;;
34541;SDS011;20784;51.332;12.410;2022-12-18T06:26:06;31.95;;;16.50;;
34541;SDS011;20784;51.332;12.410;2022-12-18T06:28:32;35.33;;;17.88;;
34541;SDS011;20784;51.332;12.410;2022-12-18T06:30:58;31.63;;;15.52;;
34541;SDS011;20784;51.332;12.410;2022-12-18T06:33:26;29.25;;;16.42;;
34541;SDS011;20784;51.332;12.410;2022-12-18T06:35:53;31.48;;;16.63;;
34541;SDS011;20784;51.332;12.410;2022-12-18T06:38:18;30.35;;;16.10;;
34541;SDS011;20784;51.332;12.410;2022-12-18T06:40:44;36.80;;;17.20;;
34541;SDS011;20784;51.332;12.410;2022-12-18T06:43:09;30.70;;;16.25;;
34541;SDS011;20784;51.332;12.410;2022-12-18T06:45:35;32.15;;;16.08;;
34541;SDS011;20784;51.332;12.410;2022-12-18T06:48:20;33.70;;;15.75;;
34541;SDS011;20784;51.332;12.410;2022-12-18T06:50:46;38.38;;;16.65;;
34541;SDS011;20784;51.332;12.410;2022-12-18T06:53:12;31.88;;;16.38;;
34541;SDS011;20784;51.332;12.410;2022-12-18T06:55:38;30.35;;;15.60;;
34541;SDS011;20784;51.332;12.410;2022-12-18T06:58:03;27.15;;;14.50;;
34541;SDS011;20784;51.332;12.410;2022-12-18T07:00:29;33.65;;;15.88;;
34541;SDS011;20784;51.332;12.410;2022-12-18T07:02:54;30.75;;;15.38;;
34541;SDS011;20784;51.332;12.410;2022-12-18T07:05:20;31.73;;;16.40;;
34541;SDS011;20784;51.332;12.410;2022-12-18T07:07:46;35.83;;;17.23;;
34541;SDS011;20784;51.332;12.410;2022-12-18T07:10:12;37.38;;;17.35;;
34541;SDS011;20784;51.332;12.410;2022-12-18T07:12:37;33.47;;;15.40;;
34541;SDS011;20784;51.332;12.410;2022-12-18T07:15:03;33.05;;;16.30;;
34541;SDS011;20784;51.332;12.410;2022-12-18T07:17:29;30.48;;;16.10;;
34541;SDS011;20784;51.332;12.410;2022-12-18T07:19:55;40.60;;;17.58;;
34541;SDS011;20784;51.332;12.410;2022-12-18T07:22:21;35.50;;;16.73;;
34541;SDS011;20784;51.332;12.410;2022-12-18T07:24:47;35.10;;;17.13;;
34541;SDS011;20784;51.332;12.410;2022-12-18T07:27:14;31.05;;;15.52;;
34541;SDS011;20784;51.332;12.410;2022-12-18T07:29:39;36.67;;;16.67;;
34541;SDS011;20784;51.332;12.410;2022-12-18T07:32:05;34.40;;;16.85;;
34541;SDS011;20784;51.332;12.410;2022-12-18T07:34:32;35.10;;;16.48;;
34541;SDS011;20784;51.332;12.410;2022-12-18T07:36:57;32.83;;;16.25;;
34541;SDS011;20784;51.332;12.410;2022-12-18T07:39:23;35.22;;;17.17;;
34541;SDS011;20784;51.332;12.410;2022-12-18T07:41:49;33.45;;;16.30;;
34541;SDS011;20784;51.332;12.410;2022-12-18T07:44:34;30.83;;;16.08;;
34541;SDS011;20784;51.332;12.410;2022-12-18T07:47:00;32.53;;;16.58;;
34541;SDS011;20784;51.332;12.410;2022-12-18T07:49:26;29.25;;;15.00;;
34541;SDS011;20784;51.332;12.410;2022-12-18T07:51:53;32.33;;;16.20;;
34541;SDS011;20784;51.332;12.410;2022-12-18T07:54:21;31.85;;;16.00;;
34541;SDS011;20784;51.332;12.410;2022-12-18T07:56:47;33.20;;;16.30;;
34541;SDS011;20784;51.332;12.410;2022-12-18T07:59:13;31.65;;;15.95;;
34541;SDS011;20784;51.332;12.410;2022-12-18T08:01:39;35.60;;;16.30;;
34541;SDS011;20784;51.332;12.410;2022-12-18T08:04:04;29.00;;;15.70;;
34541;SDS011;20784;51.332;12.410;2022-12-18T08:06:30;33.25;;;17.25;;
34541;SDS011;20784;51.332;12.410;2022-12-18T08:08:56;31.20;;;17.00;;
34541;SDS011;20784;51.332;12.410;2022-12-18T08:11:23;38.72;;;16.73;;
34541;SDS011;20784;51.332;12.410;2022-12-18T08:13:50;31.42;;;16.77;;
34541;SDS011;20784;51.332;12.410;2022-12-18T08:16:16;29.23;;;16.20;;
34541;SDS011;20784;51.332;12.410;2022-12-18T08:18:42;35.17;;;16.58;;
34541;SDS011;20784;51.332;12.410;2022-12-18T08:21:11;32.28;;;16.52;;
34541;SDS011;20784;51.332;12.410;2022-12-18T08:23:40;34.25;;;15.98;;
34541;SDS011;20784;51.332;12.410;2022-12-18T08:26:12;30.88;;;14.50;;
34541;SDS011;20784;51.332;12.410;2022-12-18T08:28:39;25.17;;;14.25;;
34541;SDS011;20784;51.332;12.410;2022-12-18T08:31:05;25.33;;;15.00;;
34541;SDS011;20784;51.332;12.410;2022-12-18T08:33:31;27.27;;;14.77;;
34541;SDS011;20784;51.332;12.410;2022-12-18T08:35:58;22.35;;;13.55;;
34541;SDS011;20784;51.332;12.410;2022-12-18T08:38:24;24.92;;;14.35;;
34541;SDS011;20784;51.332;12.410;2022-12-18T08:40:53;23.65;;;14.13;;
34541;SDS011;20784;51.332;12.410;2022-12-18T08:43:29;21.92;;;14.00;;
34541;SDS011;20784;51.332;12.410;2022-12-18T08:46:23;22.63;;;13.82;;
34541;SDS011;20784;51.332;12.410;2022-12-18T08:48:51;19.52;;;13.63;;
34541;SDS011;20784;51.332;12.410;2022-12-18T08:51:18;20.00;;;12.85;;
34541;SDS011;20784;51.332;12.410;2022-12-18T08:53:45;18.95;;;13.15;;
34541;SDS011;20784;51.332;12.410;2022-12-18T08:56:11;21.52;;;14.20;;
34541;SDS011;20784;51.332;12.410;2022-12-18T08:58:37;20.40;;;14.43;;
34541;SDS011;20784;51.332;12.410;2022-12-18T09:01:04;19.95;;;14.38;;
34541;SDS011;20784;51.332;12.410;2022-12-18T09:03:35;21.08;;;14.57;;
34541;SDS011;20784;51.332;12.410;2022-12-18T09:06:01;20.40;;;14.43;;
34541;SDS011;20784;51.332;12.410;2022-12-18T09:08:27;21.38;;;14.65;;
34541;SDS011;20784;51.332;12.410;2022-12-18T09:10:55;19.27;;;13.93;;
34541;SDS011;20784;51.332;12.410;2022-12-18T09:13:25;19.25;;;13.32;;
34541;SDS011;20784;51.332;12.410;2022-12-18T09:15:52;20.63;;;13.50;;
34541;SDS011;20784;51.332;12.410;2022-12-18T09:18:20;21.00;;;13.52;;
34541;SDS011;20784;51.332;12.410;2022-12-18T09:20:47;22.00;;;13.68;;
34541;SDS011;20784;51.332;12.410;2022-12-18T09:23:13;20.15;;;14.40;;
34541;SDS011;20784;51.332;12.410;2022-12-18T09:25:40;18.83;;;13.98;;
34541;SDS011;20784;51.332;12.410;2022-12-18T09:28:12;17.92;;;13.90;;
34541;SDS011;20784;51.332;12.410;2022-12-18T09:30:45;20.27;;;14.23;;
34541;SDS011;20784;51.332;12.410;2022-12-18T09:33:16;18.77;;;13.57;;
34541;SDS011;20784;51.332;12.410;2022-12-18T09:35:42;17.67;;;13.25;;
34541;SDS011;20784;51.332;12.410;2022-12-18T09:38:16;20.88;;;13.93;;
34541;SDS011;20784;51.332;12.410;2022-12-18T09:40:44;19.35;;;12.77;;
34541;SDS011;20784;51.332;12.410;2022-12-18T09:43:18;18.98;;;13.05;;
34541;SDS011;20784;51.332;12.410;2022-12-18T09:45:49;17.20;;;12.07;;
34541;SDS011;20784;51.332;12.410;2022-12-18T09:48:26;19.00;;;13.02;;
34541;SDS011;20784;51.332;12.410;2022-12-18T09:51:00;15.88;;;13.07;;
34541;SDS011;20784;51.332;12.410;2022-12-18T09:53:31;20.13;;;13.23;;
34541;SDS011;20784;51.332;12.410;2022-12-18T09:56:01;18.33;;;12.35;;
34541;SDS011;20784;51.332;12.410;2022-12-18T09:58:42;16.55;;;11.88;;
34541;SDS011;20784;51.332;12.410;2022-12-18T10:01:21;16.48;;;12.15;;
34541;SDS011;20784;51.332;12.410;2022-12-18T10:03:50;19.38;;;12.75;;
34541;SDS011;20784;51.332;12.410;2022-12-18T10:06:24;17.88;;;11.70;;
34541;SDS011;20784;51.332;12.410;2022-12-18T10:12:07;13.88;;;10.77;;
34541;SDS011;20784;51.332;12.410;2022-12-18T10:23:28;15.10;;;10.85;;
34541;SDS011;20784;51.332;12.410;2022-12-18T10:26:05;13.25;;;10.23;;
34541;SDS011;20784;51.332;12.410;2022-12-18T10:28:33;15.32;;;10.65;;
34541;SDS011;20784;51.332;12.410;2022-12-18T10:31:01;14.25;;;10.15;;
34541;SDS011;20784;51.332;12.410;2022-12-18T10:33:30;18.30;;;10.73;;
34541;SDS011;20784;51.332;12.410;2022-12-18T10:35:58;14.95;;;10.60;;
34541;SDS011;20784;51.332;12.410;2022-12-18T10:38:25;15.30;;;10.95;;
34541;SDS011;20784;51.332;12.410;2022-12-18T10:43:22;15.15;;;10.23;;
34541;SDS011;20784;51.332;12.410;2022-12-18T10:46:32;15.38;;;10.52;;
34541;SDS011;20784;51.332;12.410;2022-12-18T10:53:57;17.10;;;11.65;;
34541;SDS011;20784;51.332;12.410;2022-12-18T10:56:39;16.98;;;11.00;;
34541;SDS011;20784;51.332;12.410;2022-12-18T10:59:06;17.55;;;11.77;;
34541;SDS011;20784;51.332;12.410;2022-12-18T11:04:13;13.75;;;10.15;;
34541;SDS011;20784;51.332;12.410;2022-12-18T11:09:24;15.20;;;10.73;;
34541;SDS011;20784;51.332;12.410;2022-12-18T11:11:55;13.77;;;10.73;;
34541;SDS011;20784;51.332;12.410;2022-12-18T11:16:53;14.68;;;9.75;;
34541;SDS011;20784;51.332;12.410;2022-12-18T11:24:58;11.50;;;8.90;;
34541;SDS011;20784;51.332;12.410;2022-12-18T11:27:26;13.18;;;9.65;;
34541;SDS011;20784;51.332;12.410;2022-12-18T11:30:06;14.32;;;10.18;;
34541;SDS011;20784;51.332;12.410;2022-12-18T11:32:45;13.23;;;9.15;;
34541;SDS011;20784;51.332;12.410;2022-12-18T11:37:39;14.50;;;10.25;;
34541;SDS011;20784;51.332;12.410;2022-12-18T11:40:14;13.77;;;9.40;;
34541;SDS011;20784;51.332;12.410;2022-12-18T11:42:46;14.88;;;9.65;;
34541;SDS011;20784;51.332;12.410;2022-12-18T11:45:28;14.52;;;9.68;;
34541;SDS011;20784;51.332;12.410;2022-12-18T11:48:15;16.15;;;10.20;;
34541;SDS011;20784;51.332;12.410;2022-12-18T11:50:47;15.60;;;10.57;;
34541;SDS011;20784;51.332;12.410;2022-12-18T11:53:16;16.75;;;10.18;;
34541;SDS011;20784;51.332;12.410;2022-12-18T12:12:29;20.25;;;10.43;;
34541;SDS011;20784;51.332;12.410;2022-12-18T12:15:13;18.38;;;10.88;;
34541;SDS011;20784;51.332;12.410;2022-12-18T12:18:00;15.63;;;9.98;;
34541;SDS011;20784;51.332;12.410;2022-12-18T12:21:41;14.52;;;9.43;;
34541;SDS011;20784;51.332;12.410;2022-12-18T12:27:52;21.77;;;10.48;;
34541;SDS011;20784;51.332;12.410;2022-12-18T12:30:18;18.48;;;10.13;;
34541;SDS011;20784;51.332;12.410;2022-12-18T12:38:21;18.23;;;10.20;;
34541;SDS011;20784;51.332;12.410;2022-12-18T12:40:52;17.20;;;10.23;;
34541;SDS011;20784;51.332;12.410;2022-12-18T12:43:29;16.27;;;9.60;;
34541;SDS011;20784;51.332;12.410;2022-12-18T12:46:06;18.23;;;10.73;;
34541;SDS011;20784;51.332;12.410;2022-12-18T12:48:35;14.93;;;9.65;;
34541;SDS011;20784;51.332;12.410;2022-12-18T12:51:12;19.27;;;10.55;;
34541;SDS011;20784;51.332;12.410;2022-12-18T12:53:44;17.00;;;9.13;;
34541;SDS011;20784;51.332;12.410;2022-12-18T12:56:11;18.30;;;10.50;;
34541;SDS011;20784;51.332;12.410;2022-12-18T13:01:28;19.05;;;10.90;;
34541;SDS011;20784;51.332;12.410;2022-12-18T13:03:56;21.15;;;11.85;;
34541;SDS011;20784;51.332;12.410;2022-12-18T13:06:45;25.30;;;11.75;;
34541;SDS011;20784;51.332;12.410;2022-12-18T13:09:17;20.02;;;11.07;;
34541;SDS011;20784;51.332;12.410;2022-12-18T13:11:43;20.80;;;12.00;;
34541;SDS011;20784;51.332;12.410;2022-12-18T13:14:37;18.30;;;10.63;;
34541;SDS011;20784;51.332;12.410;2022-12-18T13:17:28;20.05;;;11.55;;
34541;SDS011;20784;51.332;12.410;2022-12-18T13:20:06;19.83;;;11.85;;
34541;SDS011;20784;51.332;12.410;2022-12-18T13:22:35;22.27;;;12.40;;
34541;SDS011;20784;51.332;12.410;2022-12-18T13:25:26;20.35;;;11.68;;
34541;SDS011;20784;51.332;12.410;2022-12-18T13:28:05;20.27;;;11.30;;
34541;SDS011;20784;51.332;12.410;2022-12-18T13:40:56;22.23;;;12.02;;
34541;SDS011;20784;51.332;12.410;2022-12-18T13:48:30;24.67;;;13.00;;
34541;SDS011;20784;51.332;12.410;2022-12-18T13:51:04;22.27;;;13.30;;
34541;SDS011;20784;51.332;12.410;2022-12-18T13:53:39;23.23;;;12.90;;
34541;SDS011;20784;51.332;12.410;2022-12-18T13:56:09;26.40;;;14.30;;
34541;SDS011;20784;51.332;12.410;2022-12-18T13:59:02;25.83;;;13.77;;
34541;SDS011;20784;51.332;12.410;2022-12-18T14:01:34;27.13;;;14.60;;
34541;SDS011;20784;51.332;12.410;2022-12-18T14:04:17;28.95;;;13.80;;
34541;SDS011;20784;51.332;12.410;2022-12-18T14:06:56;23.50;;;13.15;;
34541;SDS011;20784;51.332;12.410;2022-12-18T14:09:25;32.03;;;14.82;;
34541;SDS011;20784;51.332;12.410;2022-12-18T14:11:53;27.83;;;15.27;;
34541;SDS011;20784;51.332;12.410;2022-12-18T14:14:41;31.60;;;16.27;;
34541;SDS011;20784;51.332;12.410;2022-12-18T14:17:12;28.67;;;14.77;;
34541;SDS011;20784;51.332;12.410;2022-12-18T14:19:41;30.90;;;16.70;;
34541;SDS011;20784;51.332;12.410;2022-12-18T14:22:13;30.95;;;15.95;;
34541;SDS011;20784;51.332;12.410;2022-12-18T14:24:41;31.42;;;17.08;;
34541;SDS011;20784;51.332;12.410;2022-12-18T14:27:19;29.30;;;16.90;;
34541;SDS011;20784;51.332;12.410;2022-12-18T14:29:49;30.63;;;15.95;;
34541;SDS011;20784;51.332;12.410;2022-12-18T14:32:17;30.42;;;16.60;;
34541;SDS011;20784;51.332;12.410;2022-12-18T14:34:51;32.47;;;16.42;;
34541;SDS011;20784;51.332;12.410;2022-12-18T14:37:22;35.25;;;18.40;;
34541;SDS011;20784;51.332;12.410;2022-12-18T14:39:56;31.25;;;17.83;;
34541;SDS011;20784;51.332;12.410;2022-12-18T14:42:24;32.90;;;16.98;;
34541;SDS011;20784;51.332;12.410;2022-12-18T14:45:18;38.13;;;17.48;;
34541;SDS011;20784;51.332;12.410;2022-12-18T14:47:57;32.45;;;17.23;;
34541;SDS011;20784;51.332;12.410;2022-12-18T14:50:24;36.70;;;19.10;;
34541;SDS011;20784;51.332;12.410;2022-12-18T14:52:50;37.30;;;18.38;;
34541;SDS011;20784;51.332;12.410;2022-12-18T14:55:17;37.30;;;18.17;;
34541;SDS011;20784;51.332;12.410;2022-12-18T14:57:44;37.15;;;18.60;;
34541;SDS011;20784;51.332;12.410;2022-12-18T15:00:15;39.83;;;20.85;;
34541;SDS011;20784;51.332;12.410;2022-12-18T15:02:46;37.42;;;19.98;;
34541;SDS011;20784;51.332;12.410;2022-12-18T15:07:46;36.40;;;18.27;;
34541;SDS011;20784;51.332;12.410;2022-12-18T15:10:15;35.55;;;18.38;;
34541;SDS011;20784;51.332;12.410;2022-12-18T15:12:49;35.92;;;18.33;;
34541;SDS011;20784;51.332;12.410;2022-12-18T15:26:08;37.50;;;18.98;;
34541;SDS011;20784;51.332;12.410;2022-12-18T15:33:34;40.10;;;19.70;;
34541;SDS011;20784;51.332;12.410;2022-12-18T15:36:03;39.88;;;19.92;;
34541;SDS011;20784;51.332;12.410;2022-12-18T15:38:31;38.50;;;20.15;;
34541;SDS011;20784;51.332;12.410;2022-12-18T15:40:57;39.88;;;20.40;;
34541;SDS011;20784;51.332;12.410;2022-12-18T15:43:23;42.47;;;20.17;;
34541;SDS011;20784;51.332;12.410;2022-12-18T15:46:06;35.00;;;20.23;;
34541;SDS011;20784;51.332;12.410;2022-12-18T15:48:53;37.20;;;21.05;;
34541;SDS011;20784;51.332;12.410;2022-12-18T15:51:27;39.22;;;19.88;;
34541;SDS011;20784;51.332;12.410;2022-12-18T15:53:59;37.10;;;20.10;;
34541;SDS011;20784;51.332;12.410;2022-12-18T15:56:29;40.03;;;20.88;;
34541;SDS011;20784;51.332;12.410;2022-12-18T15:59:18;42.17;;;20.17;;
34541;SDS011;20784;51.332;12.410;2022-12-18T16:01:45;40.75;;;20.73;;
34541;SDS011;20784;51.332;12.410;2022-12-18T16:04:14;39.80;;;19.17;;
34541;SDS011;20784;51.332;12.410;2022-12-18T16:06:41;40.90;;;19.50;;
34541;SDS011;20784;51.332;12.410;2022-12-18T16:09:07;37.72;;;18.75;;
34541;SDS011;20784;51.332;12.410;2022-12-18T16:11:34;40.97;;;20.40;;
34541;SDS011;20784;51.332;12.410;2022-12-18T16:14:21;41.97;;;20.73;;
34541;SDS011;20784;51.332;12.410;2022-12-18T16:16:52;37.97;;;21.25;;
34541;SDS011;20784;51.332;12.410;2022-12-18T16:19:19;36.17;;;19.75;;
34541;SDS011;20784;51.332;12.410;2022-12-18T16:21:50;41.28;;;22.35;;
34541;SDS011;20784;51.332;12.410;2022-12-18T16:24:18;43.20;;;21.40;;